This is the latest recevied weather packets stored in our database for station/object K9ABJ. If no packets are shown the sender has not sent any weather packets the latest 1 day(s).
| Time | Temp. | Humidity | Pressure | Rain* | Wind** | Luminosity | Snow |
|---|---|---|---|---|---|---|---|
| 1778099756 | 15.56° C | 42% | 1012.2 hPa | 0 mm | - | 357 W/m² | - |
| 1778099452 | 15.56° C | 41% | 1012.3 hPa | 0 mm | - | 335 W/m² | - |
| 1778098846 | 15.56° C | 40% | 1012.5 hPa | 0 mm | - | 433 W/m² | - |
| 1778098544 | 14.44° C | 43% | 1012.5 hPa | 0 mm | - | 532 W/m² | - |
| 1778098240 | 14.44° C | 43% | 1012.4 hPa | 0 mm | - | 327 W/m² | - |
| 1778097633 | 13.33° C | 44% | 1012.6 hPa | 0 mm | - | 307 W/m² | - |
| 1778095815 | 13.89° C | 43% | 1012.8 hPa | 0 mm | - | 300 W/m² | - |
| 1778094601 | 12.78° C | 45% | 1012.8 hPa | 0 mm | - | 343 W/m² | - |
| 1778093994 | 13.33° C | 46% | 1012.8 hPa | 0 mm | - | 275 W/m² | - |
| 1778093388 | 14.44° C | 44% | 1012.6 hPa | 0 mm | - | 263 W/m² | - |
| 1778092478 | 12.78° C | 46% | 1013 hPa | 0 mm | - | 209 W/m² | - |
| 1778091268 | 12.78° C | 47% | 1012.9 hPa | 0 mm | - | 254 W/m² | - |
| 1778090964 | 12.78° C | 47% | 1013 hPa | 0 mm | - | 161 W/m² | - |
| 1778089751 | 14.44° C | 43% | 1012.7 hPa | 0 mm | - | 246 W/m² | - |
| 1778089146 | 15.56° C | 42% | 1012.9 hPa | 0 mm | - | 361 W/m² | - |
| 1778088236 | 15° C | 42% | 1012.8 hPa | 0 mm | - | 318 W/m² | - |
| 1778086117 | 15.56° C | 42% | 1012.7 hPa | 0 mm | - | 415 W/m² | - |
| 1778085814 | 15.56° C | 42% | 1012.7 hPa | 0 mm | - | 410 W/m² | - |
| 1778085206 | 15° C | 43% | 1012.6 hPa | 0 mm | - | 309 W/m² | - |
| 1778084902 | 15° C | 43% | 1012.8 hPa | 0 mm | - | 253 W/m² | - |
| 1778084600 | 14.44° C | 47% | 1012.9 hPa | 0 mm | - | 270 W/m² | - |
| 1778084297 | 12.78° C | 43% | 1013.1 hPa | 0 mm | - | 294 W/m² | - |
| 1778083692 | 14.44° C | 42% | 1012.7 hPa | 0 mm | - | 328 W/m² | - |
| 1778082783 | 15.56° C | 41% | 1012.8 hPa | 0 mm | - | 404 W/m² | - |
| 1778081044 | 15° C | 40% | 1012.9 hPa | 0 mm | - | 284 W/m² | - |
* Rain latest hour (hover to see other rain measurements)
** Current wind speed in m/s (hover to see current wind gust speed)